Time;durP1;ratioP1;P1;durP2;ratioP2;P2;SDS_P1;SDS_P2;PMS_P1;PMS_P2;Temp;Humidity;BMP_temperature;BMP_pressure;BME280_temperature;BME280_humidity;BME280_pressure;Samples;Min_cycle;Max_cycle;Signal;HPM_P1;HPM_P2
2023/03/02 00:00:52;;;;;;;5.55;3.80;;;-3.00;99.90;;;;;;7379266;19;20392;-78
2023/03/02 00:03:18;;;;;;;4.82;4.28;;;-2.90;99.90;;;;;;7380291;19;20304;-79
2023/03/02 00:05:46;;;;;;;7.87;5.07;;;-3.00;99.90;;;;;;7379742;19;20328;-79
2023/03/02 00:08:13;;;;;;;7.18;5.38;;;-3.00;99.90;;;;;;7380896;19;20312;-80
2023/03/02 00:10:39;;;;;;;5.00;4.50;;;-3.00;99.90;;;;;;7378674;19;20345;-78
2023/03/02 00:13:04;;;;;;;5.77;4.47;;;-3.10;99.90;;;;;;7380895;19;20333;-80
2023/03/02 00:15:30;;;;;;;6.78;4.47;;;-3.10;99.90;;;;;;7381970;19;20365;-84
2023/03/02 00:17:56;;;;;;;5.87;4.53;;;-3.10;99.90;;;;;;7387714;19;20654;-79
2023/03/02 00:20:22;;;;;;;4.38;3.97;;;-3.10;99.90;;;;;;7392517;19;20317;-79
2023/03/02 00:22:48;;;;;;;5.63;4.32;;;-3.10;99.90;;;;;;7397547;19;20336;-81
2023/03/02 00:25:14;;;;;;;4.17;3.77;;;-3.10;99.90;;;;;;7388963;19;20890;-80
2023/03/02 00:27:40;;;;;;;4.63;4.13;;;-3.10;99.90;;;;;;7379912;19;20337;-80
2023/03/02 00:30:06;;;;;;;6.57;4.73;;;-3.10;99.90;;;;;;7380149;19;20437;-79
2023/03/02 00:32:33;;;;;;;5.28;4.38;;;-3.10;99.90;;;;;;7381301;19;20327;-78
2023/03/02 00:34:58;;;;;;;4.75;4.25;;;-3.10;99.90;;;;;;7382372;19;20350;-80
2023/03/02 00:37:27;;;;;;;4.30;3.72;;;-3.10;99.90;;;;;;7375966;19;20840;-82
2023/03/02 00:39:53;;;;;;;5.68;4.15;;;-3.10;99.90;;;;;;7379057;19;20432;-79
2023/03/02 00:42:19;;;;;;;4.90;4.40;;;-3.10;99.90;;;;;;7377518;19;20881;-79
2023/03/02 00:44:45;;;;;;;4.22;3.80;;;-3.10;99.90;;;;;;7379641;19;20335;-82
2023/03/02 00:47:10;;;;;;;4.47;4.05;;;-3.20;99.90;;;;;;7380437;19;20312;-85
2023/03/02 00:49:36;;;;;;;5.10;4.10;;;-3.20;99.90;;;;;;7379187;19;20325;-81
2023/03/02 00:52:03;;;;;;;5.15;3.65;;;-3.20;99.90;;;;;;7379423;19;20879;-82
2023/03/02 00:54:28;;;;;;;4.40;3.50;;;-3.20;99.90;;;;;;7381679;19;20420;-80
2023/03/02 00:56:54;;;;;;;4.77;4.00;;;-3.20;99.90;;;;;;7378144;19;20349;-79
2023/03/02 00:59:26;;;;;;;4.75;4.05;;;-3.30;99.90;;;;;;7379907;19;20710;-79
2023/03/02 01:02:00;;;;;;;4.90;4.30;;;-3.30;99.90;;;;;;7373292;19;20367;-82
2023/03/02 01:04:34;;;;;;;4.90;4.25;;;-3.30;99.90;;;;;;7380028;19;20307;-79
2023/03/02 01:07:09;;;;;;;4.35;3.65;;;-3.30;99.90;;;;;;7379711;19;20407;-78
2023/03/02 01:09:35;;;;;;;6.30;4.07;;;-3.30;99.90;;;;;;7381229;19;20315;-79
2023/03/02 01:12:01;;;;;;;5.45;4.30;;;-3.30;99.90;;;;;;7375232;19;20350;-80
2023/03/02 01:14:27;;;;;;;7.57;5.35;;;-3.20;99.90;;;;;;7377149;19;20324;-79
2023/03/02 01:16:52;;;;;;;4.70;4.17;;;-3.30;99.90;;;;;;7377266;19;20440;-79
2023/03/02 01:19:18;;;;;;;8.10;4.95;;;-3.30;99.90;;;;;;7377654;19;20332;-81
2023/03/02 01:21:44;;;;;;;6.20;4.45;;;-3.40;99.90;;;;;;7374257;19;20341;-80
2023/03/02 01:24:10;;;;;;;5.43;4.70;;;-3.40;99.90;;;;;;7376535;19;20297;-78
2023/03/02 01:26:35;;;;;;;5.03;4.28;;;-3.40;99.90;;;;;;7378273;19;20899;-80
2023/03/02 01:29:01;;;;;;;5.15;4.03;;;-3.40;99.90;;;;;;7381877;19;20693;-80
2023/03/02 01:31:27;;;;;;;5.30;4.25;;;-3.40;99.90;;;;;;7381414;19;20379;-78
2023/03/02 01:33:53;;;;;;;4.93;4.35;;;-3.50;99.90;;;;;;7361526;19;20352;-80
2023/03/02 01:36:19;;;;;;;4.03;3.70;;;-3.50;99.90;;;;;;7379575;19;20409;-79
2023/03/02 01:38:44;;;;;;;4.38;3.88;;;-3.50;99.90;;;;;;7377759;19;20704;-79
2023/03/02 01:41:10;;;;;;;5.00;4.50;;;-3.40;99.90;;;;;;7380278;19;20320;-81
2023/03/02 01:43:36;;;;;;;7.57;4.72;;;-3.50;99.90;;;;;;7379944;19;20851;-81
2023/03/02 01:46:19;;;;;;;6.60;5.07;;;-3.50;99.90;;;;;;7379139;19;20352;-78
2023/03/02 01:49:00;;;;;;;5.95;4.45;;;-3.60;99.90;;;;;;7381232;19;20375;-79
2023/03/02 01:51:42;;;;;;;4.85;4.00;;;-3.60;99.90;;;;;;7280534;19;2004383;-79
2023/03/02 01:54:09;;;;;;;4.43;3.80;;;-3.60;99.90;;;;;;7382475;19;20448;-82
2023/03/02 01:56:36;;;;;;;4.27;3.87;;;-3.60;99.90;;;;;;7379670;19;20359;-82
2023/03/02 01:59:06;;;;;;;4.63;4.22;;;-3.60;99.90;;;;;;7381127;19;20396;-81
2023/03/02 02:01:33;;;;;;;4.22;3.83;;;-3.60;99.90;;;;;;7376209;19;20418;-78
2023/03/02 02:04:00;;;;;;;4.95;4.35;;;-3.60;99.90;;;;;;7380943;19;20341;-81
2023/03/02 02:06:36;;;;;;;4.68;3.92;;;-3.60;99.90;;;;;;7379124;19;20365;-78
2023/03/02 02:09:02;;;;;;;4.97;4.43;;;-3.60;99.90;;;;;;7380621;19;20332;-81
2023/03/02 02:11:28;;;;;;;5.47;4.20;;;-3.60;99.90;;;;;;7379391;19;20376;-77
2023/03/02 02:13:55;;;;;;;4.95;4.35;;;-3.60;99.90;;;;;;7380020;19;20451;-79
2023/03/02 02:16:21;;;;;;;4.97;3.78;;;-3.70;99.90;;;;;;7378348;19;20320;-81
2023/03/02 02:18:47;;;;;;;4.35;3.78;;;-3.70;99.90;;;;;;7383381;19;20348;-79
2023/03/02 02:21:13;;;;;;;5.87;4.10;;;-3.70;99.90;;;;;;7379894;19;20639;-80
2023/03/02 02:23:46;;;;;;;4.50;4.03;;;-3.70;99.90;;;;;;7379806;19;20324;-81
2023/03/02 02:26:19;;;;;;;6.13;3.87;;;-3.70;99.90;;;;;;7380089;19;20308;-79
2023/03/02 02:29:11;;;;;;;6.20;3.80;;;-3.70;99.90;;;;;;7382826;19;20347;-83
2023/03/02 02:31:41;;;;;;;4.83;4.00;;;-3.80;99.90;;;;;;7277719;19;2004351;-79
2023/03/02 02:34:21;;;;;;;4.85;3.75;;;-3.70;99.90;;;;;;7386034;19;20444;-80
2023/03/02 02:36:48;;;;;;;7.00;4.35;;;-3.70;99.90;;;;;;7384277;19;20352;-79
2023/03/02 02:39:28;;;;;;;5.10;3.90;;;-3.80;99.90;;;;;;7383949;19;20308;-78
2023/03/02 02:41:55;;;;;;;3.97;3.60;;;-3.80;99.90;;;;;;7282130;19;2004170;-79
2023/03/02 02:44:21;;;;;;;5.18;4.20;;;-3.80;99.90;;;;;;7387223;19;20312;-79
2023/03/02 02:46:47;;;;;;;5.47;4.33;;;-3.70;99.90;;;;;;7385346;19;20339;-80
2023/03/02 02:49:25;;;;;;;5.20;3.55;;;-3.80;99.90;;;;;;7386250;19;21090;-78
2023/03/02 02:51:51;;;;;;;4.28;3.63;;;-3.80;99.90;;;;;;7279191;19;2004168;-81
2023/03/02 02:54:16;;;;;;;4.15;3.75;;;-3.80;99.90;;;;;;7383357;19;21009;-79
2023/03/02 02:56:42;;;;;;;4.80;3.80;;;-3.80;99.90;;;;;;7383660;19;20868;-81
2023/03/02 02:59:20;;;;;;;6.68;3.92;;;-3.80;99.90;;;;;;7386447;19;20375;-79
2023/03/02 03:01:48;;;;;;;3.90;3.38;;;-3.80;99.90;;;;;;7384293;19;20333;-79
2023/03/02 03:04:20;;;;;;;5.00;3.92;;;-3.80;99.90;;;;;;7387821;19;20320;-79
2023/03/02 03:06:53;;;;;;;5.45;3.85;;;-3.80;99.90;;;;;;7382465;19;20352;-79
2023/03/02 03:09:19;;;;;;;4.93;4.05;;;-3.80;99.90;;;;;;7283416;19;2004280;-81
2023/03/02 03:11:49;;;;;;;5.67;3.83;;;-3.90;99.90;;;;;;7387078;19;20388;-82
2023/03/02 03:14:18;;;;;;;9.27;4.43;;;-3.90;99.90;;;;;;7385743;19;20383;-80
2023/03/02 03:16:46;;;;;;;7.60;4.55;;;-4.00;99.90;;;;;;7383417;19;20320;-81
2023/03/02 03:19:17;;;;;;;6.28;4.60;;;-4.10;99.90;;;;;;7387724;19;21167;-79
2023/03/02 03:21:43;;;;;;;5.70;4.47;;;-4.10;99.90;;;;;;7386278;19;20325;-79
2023/03/02 03:24:09;;;;;;;5.68;4.03;;;-4.10;99.90;;;;;;7385849;19;20750;-79
2023/03/02 03:26:35;;;;;;;7.32;4.60;;;-4.10;99.90;;;;;;7381537;19;20355;-79
2023/03/02 03:29:01;;;;;;;6.45;4.40;;;-4.10;99.90;;;;;;7381758;19;20349;-80
2023/03/02 03:31:27;;;;;;;5.83;4.27;;;-4.00;99.90;;;;;;7383022;19;20348;-79
2023/03/02 03:33:54;;;;;;;5.05;4.10;;;-4.10;99.90;;;;;;7384461;19;20348;-82
2023/03/02 03:36:20;;;;;;;4.82;3.80;;;-4.10;99.90;;;;;;7385151;19;20324;-79
2023/03/02 03:38:46;;;;;;;5.43;4.03;;;-4.10;99.90;;;;;;7387513;19;20957;-82
2023/03/02 03:41:11;;;;;;;5.77;4.30;;;-4.00;99.90;;;;;;7385021;19;20304;-82
2023/03/02 03:43:37;;;;;;;5.35;4.10;;;-4.00;99.90;;;;;;7383063;19;20325;-80
2023/03/02 03:46:03;;;;;;;6.85;4.45;;;-4.00;99.90;;;;;;7386048;19;20332;-82
2023/03/02 03:48:29;;;;;;;7.65;5.07;;;-4.00;99.90;;;;;;7381887;19;20698;-79
2023/03/02 03:50:54;;;;;;;8.10;5.83;;;-4.00;99.90;;;;;;7383916;19;20370;-82
2023/03/02 03:53:20;;;;;;;7.53;5.60;;;-4.00;99.90;;;;;;7378105;19;20333;-79
2023/03/02 03:55:46;;;;;;;8.73;6.30;;;-4.00;99.90;;;;;;7384398;19;20336;-79
2023/03/02 03:58:12;;;;;;;8.07;5.20;;;-4.10;99.90;;;;;;7383012;19;20408;-83
2023/03/02 04:00:38;;;;;;;5.83;5.20;;;-4.20;99.90;;;;;;7382937;19;20321;-82
2023/03/02 04:03:08;;;;;;;8.10;5.18;;;-4.10;99.90;;;;;;7384298;19;20381;-80
2023/03/02 04:05:33;;;;;;;7.27;5.10;;;-4.10;99.90;;;;;;7384014;19;20324;-86
2023/03/02 04:08:01;;;;;;;8.25;5.50;;;-4.10;99.90;;;;;;7383751;19;20349;-84
2023/03/02 04:10:28;;;;;;;7.40;5.28;;;-4.10;99.90;;;;;;7383369;19;20919;-79
2023/03/02 04:12:54;;;;;;;8.07;5.90;;;-4.10;99.90;;;;;;7383569;19;20697;-82
2023/03/02 04:15:20;;;;;;;8.53;6.00;;;-4.10;99.90;;;;;;7384946;19;20305;-79
2023/03/02 04:17:49;;;;;;;10.20;6.10;;;-4.20;99.90;;;;;;7382960;19;20340;-79
2023/03/02 04:20:18;;;;;;;10.18;6.45;;;-4.20;99.90;;;;;;7384327;19;20333;-81
2023/03/02 04:22:48;;;;;;;9.77;6.38;;;-4.20;99.90;;;;;;7382847;19;20401;-79
2023/03/02 04:25:14;;;;;;;10.15;6.05;;;-4.10;99.90;;;;;;7385331;19;20337;-79
2023/03/02 04:27:40;;;;;;;8.70;5.80;;;-4.20;99.90;;;;;;7381440;19;20408;-79
2023/03/02 04:30:07;;;;;;;9.15;6.57;;;-4.20;99.90;;;;;;7384257;19;20740;-80
2023/03/02 04:32:33;;;;;;;9.50;6.30;;;-4.20;99.90;;;;;;7384101;19;20317;-79
2023/03/02 04:34:58;;;;;;;9.87;6.60;;;-4.30;99.90;;;;;;7383950;19;20350;-84
2023/03/02 04:37:25;;;;;;;9.13;6.10;;;-4.30;99.90;;;;;;7381857;19;20398;-84
2023/03/02 04:39:52;;;;;;;8.88;5.85;;;-4.40;99.90;;;;;;7382718;19;20350;-81
2023/03/02 04:42:18;;;;;;;9.32;6.78;;;-4.40;99.90;;;;;;7384127;19;20321;-81
2023/03/02 04:44:44;;;;;;;9.87;7.27;;;-4.40;99.90;;;;;;7395942;19;20325;-79
2023/03/02 04:47:09;;;;;;;8.53;6.43;;;-4.40;99.90;;;;;;7395968;19;20325;-82
2023/03/02 04:49:35;;;;;;;9.05;6.05;;;-4.50;99.90;;;;;;7397609;19;20320;-81
2023/03/02 04:52:02;;;;;;;10.57;6.97;;;-4.40;99.90;;;;;;7379179;19;20373;-75
2023/03/02 04:54:28;;;;;;;11.23;7.18;;;-4.40;99.90;;;;;;7380833;19;20407;-79
2023/03/02 04:56:54;;;;;;;10.23;6.27;;;-4.50;99.90;;;;;;7378025;19;20383;-80
2023/03/02 04:59:27;;;;;;;12.00;7.30;;;-4.50;99.90;;;;;;7383216;19;20336;-78
2023/03/02 05:01:54;;;;;;;11.90;8.57;;;-4.60;99.90;;;;;;7277626;19;2004215;-81
2023/03/02 05:04:19;;;;;;;13.48;7.88;;;-4.60;99.90;;;;;;7383426;19;20325;-80
2023/03/02 05:06:45;;;;;;;10.57;6.90;;;-4.60;99.90;;;;;;7380055;19;20791;-78
2023/03/02 05:09:12;;;;;;;12.37;8.63;;;-4.60;99.90;;;;;;7380478;19;20316;-78
2023/03/02 05:11:37;;;;;;;13.38;7.75;;;-4.50;99.90;;;;;;7381646;19;20359;-76
2023/03/02 05:14:04;;;;;;;11.07;7.57;;;-4.60;99.90;;;;;;7382946;19;20336;-80
2023/03/02 05:16:31;;;;;;;12.13;7.75;;;-4.50;99.90;;;;;;7378679;19;20359;-83
2023/03/02 05:18:57;;;;;;;12.50;7.95;;;-4.50;99.90;;;;;;7379218;19;20389;-78
2023/03/02 05:21:23;;;;;;;13.57;8.90;;;-4.50;99.90;;;;;;7379234;19;20331;-78
2023/03/02 05:23:48;;;;;;;11.48;8.25;;;-4.50;99.90;;;;;;7380971;19;20341;-80
2023/03/02 05:26:14;;;;;;;11.57;7.70;;;-4.50;99.90;;;;;;7382031;19;20336;-81
2023/03/02 05:28:40;;;;;;;11.00;6.90;;;-4.50;99.90;;;;;;7381310;19;20333;-79
2023/03/02 05:31:06;;;;;;;11.77;7.10;;;-4.60;99.90;;;;;;7383544;19;20365;-82
2023/03/02 05:33:31;;;;;;;9.13;6.75;;;-4.60;99.90;;;;;;7382444;19;20863;-79
2023/03/02 05:35:57;;;;;;;8.30;6.40;;;-4.40;99.90;;;;;;7383939;19;20332;-79
2023/03/02 05:38:22;;;;;;;7.87;6.00;;;-4.40;99.90;;;;;;7379319;19;20308;-78
2023/03/02 05:40:48;;;;;;;7.50;5.97;;;-4.50;99.90;;;;;;7383422;19;20345;-78
2023/03/02 05:43:15;;;;;;;8.10;6.00;;;-4.50;99.90;;;;;;7379826;19;20316;-79
2023/03/02 05:45:41;;;;;;;8.98;6.20;;;-4.50;99.90;;;;;;7380993;19;20332;-81
2023/03/02 05:48:07;;;;;;;7.63;5.80;;;-4.50;99.90;;;;;;7378754;19;20369;-78
2023/03/02 05:50:32;;;;;;;11.65;6.57;;;-4.60;99.90;;;;;;7380302;19;20917;-77
2023/03/02 05:52:59;;;;;;;19.52;12.95;;;-4.60;99.90;;;;;;7379463;19;20428;-78
2023/03/02 05:55:25;;;;;;;16.08;10.13;;;-4.60;99.90;;;;;;7382057;19;20369;-82
2023/03/02 05:57:50;;;;;;;13.75;9.77;;;-4.70;99.90;;;;;;7378478;19;20333;-81
2023/03/02 06:00:16;;;;;;;14.10;9.43;;;-4.60;99.90;;;;;;7382299;19;20305;-78
2023/03/02 06:02:42;;;;;;;16.87;9.67;;;-4.60;99.90;;;;;;7378804;19;20962;-80
2023/03/02 06:05:09;;;;;;;13.47;9.60;;;-4.60;99.90;;;;;;7382002;19;20364;-79
2023/03/02 06:07:41;;;;;;;13.13;8.32;;;-4.60;99.90;;;;;;7375104;19;20331;-78
2023/03/02 06:10:07;;;;;;;12.25;8.45;;;-4.60;99.90;;;;;;7380268;19;20387;-78
2023/03/02 06:12:33;;;;;;;14.98;8.68;;;-4.60;99.90;;;;;;7378223;19;20328;-78
2023/03/02 06:14:59;;;;;;;10.90;7.57;;;-4.50;99.90;;;;;;7380167;19;20365;-82
2023/03/02 06:17:25;;;;;;;9.95;7.43;;;-4.50;99.90;;;;;;7378687;19;20337;-83
2023/03/02 06:19:50;;;;;;;12.02;8.00;;;-4.50;99.90;;;;;;7379652;19;20349;-80
2023/03/02 06:22:16;;;;;;;10.57;7.85;;;-4.40;99.90;;;;;;7382834;19;20332;-80
2023/03/02 06:24:41;;;;;;;11.77;8.13;;;-4.40;99.90;;;;;;7381770;19;20337;-79
2023/03/02 06:27:07;;;;;;;11.95;8.40;;;-4.40;99.90;;;;;;7378308;19;20337;-80
2023/03/02 06:29:33;;;;;;;14.00;8.70;;;-4.30;99.90;;;;;;7378237;19;20325;-82
2023/03/02 06:31:58;;;;;;;12.88;7.95;;;-4.40;99.90;;;;;;7377252;19;20446;-78
2023/03/02 06:34:24;;;;;;;12.93;7.53;;;-4.40;99.90;;;;;;7377016;19;20420;-83
2023/03/02 06:36:49;;;;;;;13.17;8.40;;;-4.50;99.90;;;;;;7379377;19;20399;-81
2023/03/02 06:39:15;;;;;;;14.65;8.68;;;-4.50;99.90;;;;;;7378172;19;20846;-82
2023/03/02 06:41:44;;;;;;;15.87;9.13;;;-4.50;99.90;;;;;;7379586;19;20325;-79
2023/03/02 06:44:10;;;;;;;12.30;7.70;;;-4.40;99.90;;;;;;7383002;19;20371;-80
2023/03/02 06:46:36;;;;;;;11.40;6.97;;;-4.40;99.90;;;;;;7380740;19;20376;-82
2023/03/02 06:49:02;;;;;;;9.35;7.00;;;-4.30;99.90;;;;;;7381357;19;20328;-79
2023/03/02 06:51:28;;;;;;;11.87;7.10;;;-4.20;99.90;;;;;;7381840;19;20320;-81
2023/03/02 06:53:53;;;;;;;10.90;6.70;;;-4.10;99.90;;;;;;7381400;19;20328;-81
2023/03/02 06:56:19;;;;;;;11.93;7.10;;;-4.00;99.90;;;;;;7381175;19;20343;-80
2023/03/02 06:58:44;;;;;;;14.53;7.73;;;-4.00;99.90;;;;;;7382133;19;20329;-81
2023/03/02 07:01:10;;;;;;;10.23;7.25;;;-3.90;99.90;;;;;;7381562;19;20349;-81
2023/03/02 07:03:36;;;;;;;12.90;7.37;;;-3.90;99.90;;;;;;7381145;19;20320;-80
2023/03/02 07:06:02;;;;;;;11.23;7.18;;;-3.80;99.90;;;;;;7380365;19;20352;-79
2023/03/02 07:08:27;;;;;;;12.77;7.88;;;-3.80;99.90;;;;;;7379866;19;20343;-84
2023/03/02 07:10:53;;;;;;;11.30;7.07;;;-3.70;99.90;;;;;;7380120;19;20333;-81
2023/03/02 07:13:19;;;;;;;12.52;7.50;;;-3.70;99.90;;;;;;7378407;19;20886;-79
2023/03/02 07:15:44;;;;;;;11.82;7.45;;;-3.60;99.90;;;;;;7381012;19;20703;-81
2023/03/02 07:18:10;;;;;;;10.33;7.23;;;-3.50;99.90;;;;;;7377929;19;20337;-81
2023/03/02 07:20:35;;;;;;;9.50;6.90;;;-3.50;99.90;;;;;;7385763;19;20309;-78
2023/03/02 07:23:01;;;;;;;12.23;7.27;;;-3.40;99.90;;;;;;7385585;19;20336;-79
2023/03/02 07:25:27;;;;;;;13.23;7.73;;;-3.20;99.90;;;;;;7384487;19;20309;-80
2023/03/02 07:27:52;;;;;;;12.25;7.22;;;-3.20;99.90;;;;;;7383083;19;20364;-78
2023/03/02 07:30:20;;;;;;;10.97;7.47;;;-3.10;99.90;;;;;;7386980;19;20300;-82
2023/03/02 07:32:49;;;;;;;13.65;7.97;;;-3.10;99.90;;;;;;7385086;19;20344;-80
2023/03/02 07:35:15;;;;;;;10.90;7.72;;;-3.00;99.90;;;;;;7386882;19;20309;-78
2023/03/02 07:37:41;;;;;;;12.37;7.13;;;-2.80;99.90;;;;;;7382106;19;20337;-79
2023/03/02 07:40:08;;;;;;;12.03;7.13;;;-2.80;99.90;;;;;;7385786;19;20341;-79
2023/03/02 07:42:34;;;;;;;16.65;10.35;;;-2.70;99.90;;;;;;7383918;19;20357;-78
2023/03/02 07:45:03;;;;;;;13.30;8.68;;;-2.60;99.90;;;;;;7383910;19;20945;-78
2023/03/02 07:47:29;;;;;;;14.15;8.43;;;-2.40;99.90;;;;;;7383355;19;20431;-77
2023/03/02 07:49:54;;;;;;;12.50;8.23;;;-2.30;99.90;;;;;;7385024;19;20345;-77
2023/03/02 07:52:20;;;;;;;9.82;7.10;;;-2.10;99.90;;;;;;7386151;19;20332;-78
2023/03/02 07:54:45;;;;;;;7.90;6.03;;;-2.00;99.90;;;;;;7384679;19;20347;-77
2023/03/02 07:57:16;;;;;;;9.00;6.80;;;-1.90;99.90;;;;;;7379980;19;20330;-81
2023/03/02 07:59:42;;;;;;;12.05;7.85;;;-1.90;99.90;;;;;;7386300;19;21053;-77
2023/03/02 08:02:11;;;;;;;12.00;7.85;;;-1.70;99.90;;;;;;7380995;19;20352;-81
2023/03/02 08:04:37;;;;;;;13.20;7.95;;;-1.60;99.90;;;;;;7384837;19;20333;-79
2023/03/02 08:07:02;;;;;;;8.90;6.97;;;-1.40;99.90;;;;;;7383413;19;20700;-78
2023/03/02 08:09:28;;;;;;;14.73;8.57;;;-1.20;99.90;;;;;;7385348;19;20309;-80
2023/03/02 08:11:54;;;;;;;11.65;7.38;;;-1.20;99.90;;;;;;7380703;19;20329;-79
2023/03/02 08:14:19;;;;;;;12.20;7.77;;;-1.00;99.90;;;;;;7386364;19;20344;-80
2023/03/02 08:16:45;;;;;;;10.40;8.13;;;-0.90;99.90;;;;;;7379127;19;21528;-80
2023/03/02 08:19:11;;;;;;;9.43;6.90;;;-0.80;99.90;;;;;;7384361;19;20815;-78
2023/03/02 08:21:36;;;;;;;11.90;8.45;;;-0.70;99.90;;;;;;7380887;19;20421;-78
2023/03/02 08:24:02;;;;;;;14.60;8.67;;;-0.60;99.90;;;;;;7381899;19;20352;-80
2023/03/02 08:26:27;;;;;;;12.48;8.27;;;-0.50;99.90;;;;;;7382358;19;20836;-77
2023/03/02 08:28:53;;;;;;;10.32;8.00;;;-0.30;99.90;;;;;;7381929;19;20463;-78
2023/03/02 08:31:19;;;;;;;11.17;9.07;;;-0.20;99.90;;;;;;7381610;19;20333;-78
2023/03/02 08:33:44;;;;;;;13.20;7.68;;;-0.10;99.90;;;;;;7382369;19;20407;-82
2023/03/02 08:36:15;;;;;;;11.20;8.33;;;0.00;99.90;;;;;;7379993;19;20347;-79
2023/03/02 08:38:41;;;;;;;13.15;8.82;;;0.10;99.90;;;;;;7380500;19;20312;-79
2023/03/02 08:41:09;;;;;;;12.20;9.20;;;0.10;99.90;;;;;;7379860;19;21429;-80
2023/03/02 08:43:35;;;;;;;12.60;7.53;;;0.20;99.90;;;;;;7378504;19;20678;-81
2023/03/02 08:46:00;;;;;;;12.60;8.23;;;0.20;99.90;;;;;;7380227;19;20324;-78
2023/03/02 08:48:26;;;;;;;11.15;8.50;;;0.30;99.90;;;;;;7381684;19;20323;-79
2023/03/02 08:50:59;;;;;;;13.25;9.38;;;0.40;99.90;;;;;;7382245;19;20348;-77
2023/03/02 08:53:25;;;;;;;11.35;8.98;;;0.60;99.90;;;;;;7382053;19;20308;-80
2023/03/02 08:55:52;;;;;;;11.90;8.53;;;0.70;99.90;;;;;;7378519;19;20353;-80
2023/03/02 08:58:17;;;;;;;12.60;9.23;;;0.70;99.90;;;;;;7380343;19;20344;-79
2023/03/02 09:00:43;;;;;;;13.57;8.55;;;0.90;99.90;;;;;;7381321;19;20376;-80
2023/03/02 09:03:09;;;;;;;14.53;9.53;;;0.90;99.90;;;;;;7363954;19;20357;-80
2023/03/02 09:05:34;;;;;;;10.10;7.65;;;1.00;99.90;;;;;;7382210;19;20742;-78
2023/03/02 09:08:00;;;;;;;15.45;10.30;;;1.10;99.90;;;;;;7379496;19;20329;-79
2023/03/02 09:10:26;;;;;;;13.32;9.25;;;1.30;99.90;;;;;;7385127;19;20320;-81
2023/03/02 09:12:52;;;;;;;12.80;9.87;;;1.30;99.90;;;;;;7380057;19;20340;-85
2023/03/02 09:15:17;;;;;;;14.70;9.95;;;1.40;99.90;;;;;;7392292;19;20989;-80
2023/03/02 09:17:43;;;;;;;13.65;10.15;;;1.50;99.90;;;;;;7391280;19;20309;-86
2023/03/02 09:20:09;;;;;;;11.30;9.17;;;1.70;99.90;;;;;;7395454;19;20395;-82
2023/03/02 09:22:35;;;;;;;13.15;9.40;;;1.60;99.90;;;;;;7398172;19;20382;-81
2023/03/02 09:25:02;;;;;;;10.93;9.15;;;1.80;99.90;;;;;;7392694;19;20381;-80
2023/03/02 09:27:28;;;;;;;14.43;9.40;;;1.80;99.90;;;;;;7391752;19;20380;-84
2023/03/02 09:29:53;;;;;;;12.32;9.32;;;1.90;99.90;;;;;;7398692;19;20422;-87
2023/03/02 09:32:19;;;;;;;12.60;10.13;;;2.00;99.90;;;;;;7399760;19;20296;-82
2023/03/02 09:34:45;;;;;;;17.80;11.75;;;2.00;99.90;;;;;;7400768;19;20312;-88
2023/03/02 09:37:10;;;;;;;15.27;11.10;;;2.20;99.90;;;;;;7398260;19;20315;-82
2023/03/02 09:39:36;;;;;;;13.88;10.05;;;2.30;99.90;;;;;;7400094;19;20324;-87
2023/03/02 09:42:18;;;;;;;13.43;10.10;;;2.50;99.90;;;;;;7397996;19;20333;-90
2023/03/02 09:45:05;;;;;;;14.50;9.80;;;2.50;99.90;;;;;;7398731;19;20309;-92
2023/03/02 09:47:43;;;;;;;12.93;8.97;;;2.70;99.90;;;;;;7293314;19;2004536;-86
2023/03/02 09:50:26;;;;;;;12.77;9.75;;;2.70;99.90;;;;;;7396055;19;20352;-85
2023/03/02 09:53:12;;;;;;;10.57;7.97;;;2.90;99.90;;;;;;7286617;19;2004659;-84
2023/03/02 09:55:38;;;;;;;9.07;7.93;;;3.00;99.90;;;;;;7394330;19;20398;-91
2023/03/02 09:58:22;;;;;;;13.00;9.38;;;3.10;99.90;;;;;;7390155;19;20341;-88
2023/03/02 10:00:47;;;;;;;14.40;9.63;;;3.10;99.90;;;;;;7393005;19;20692;-87
2023/03/02 10:03:20;;;;;;;12.75;9.20;;;3.30;99.90;;;;;;7395421;19;20316;-82
2023/03/02 10:05:53;;;;;;;11.32;8.35;;;3.30;99.90;;;;;;7393199;19;20344;-90
2023/03/02 10:08:26;;;;;;;13.03;10.40;;;3.20;99.90;;;;;;7393836;19;20320;-93
2023/03/02 10:11:09;;;;;;;9.27;7.77;;;3.30;99.90;;;;;;7291378;19;2004357;-91
2023/03/02 10:13:51;;;;;;;13.33;9.63;;;3.40;99.90;;;;;;7394588;19;20304;-82
2023/03/02 10:16:16;;;;;;;10.75;7.72;;;3.50;99.90;;;;;;7394491;19;20338;-93
2023/03/02 10:18:46;;;;;;;11.03;8.40;;;3.60;99.90;;;;;;7397497;19;20337;-90
2023/03/02 10:21:47;;;;;;;12.15;8.73;;;3.60;99.90;;;;;;7394960;19;20665;-93
2023/03/02 10:24:37;;;;;;;10.50;8.57;;;3.80;99.90;;;;;;7292722;19;2004362;-83
2023/03/02 10:27:20;;;;;;;10.30;7.93;;;3.90;99.90;;;;;;7284544;19;2004345;-90
2023/03/02 10:29:50;;;;;;;11.32;8.50;;;3.90;99.90;;;;;;7385542;19;20352;-79
2023/03/02 10:32:21;;;;;;;11.73;8.93;;;4.00;99.90;;;;;;7377293;19;20316;-80
2023/03/02 10:34:48;;;;;;;10.35;7.97;;;4.10;99.90;;;;;;7377795;19;20336;-79
2023/03/02 10:37:20;;;;;;;12.50;8.68;;;4.10;99.90;;;;;;7376797;19;20324;-81
2023/03/02 10:39:46;;;;;;;11.90;8.73;;;4.20;99.90;;;;;;7379860;19;20374;-80
2023/03/02 10:42:35;;;;;;;11.98;8.23;;;4.30;99.90;;;;;;7373816;19;21244;-82
2023/03/02 10:45:30;;;;;;;11.27;9.23;;;4.30;99.90;;;;;;7272264;19;2019182;-79
2023/03/02 10:48:10;;;;;;;14.53;9.13;;;4.50;99.90;;;;;;7269974;19;2004313;-81
2023/03/02 10:50:36;;;;;;;16.85;10.02;;;4.50;99.90;;;;;;7376513;19;20312;-78
2023/03/02 10:53:02;;;;;;;13.65;9.43;;;4.70;99.90;;;;;;7375334;19;20369;-78
2023/03/02 10:55:28;;;;;;;12.73;9.47;;;4.80;99.90;;;;;;7384546;19;20312;-81
2023/03/02 10:58:24;;;;;;;16.15;10.68;;;5.10;99.90;;;;;;7381521;19;20412;-80
2023/03/02 11:01:04;;;;;;;14.95;10.30;;;5.30;99.90;;;;;;7383593;19;20702;-80
2023/03/02 11:03:30;;;;;;;12.60;9.52;;;5.50;99.90;;;;;;7278576;19;2011444;-78
2023/03/02 11:05:56;;;;;;;15.88;9.98;;;5.80;99.90;;;;;;7383501;19;20334;-78
2023/03/02 11:08:27;;;;;;;13.93;10.23;;;6.10;99.90;;;;;;7383220;19;20367;-81
2023/03/02 11:11:23;;;;;;;13.27;9.27;;;6.40;99.90;;;;;;7397431;19;20324;-84
2023/03/02 11:13:48;;;;;;;12.40;9.70;;;6.70;99.90;;;;;;7399052;19;20344;-81
2023/03/02 11:16:17;;;;;;;13.83;10.17;;;6.80;99.90;;;;;;7399595;19;20352;-78
2023/03/02 11:18:45;;;;;;;13.65;9.50;;;7.10;99.90;;;;;;7399606;19;20356;-83
2023/03/02 11:21:23;;;;;;;16.33;10.23;;;7.40;99.90;;;;;;7402207;19;20325;-79
2023/03/02 11:24:14;;;;;;;12.32;8.55;;;7.60;99.90;;;;;;7403571;19;20360;-80
2023/03/02 11:26:53;;;;;;;16.42;9.65;;;7.80;99.90;;;;;;7297410;19;2004513;-84
2023/03/02 11:29:25;;;;;;;14.60;9.43;;;8.10;99.90;;;;;;7403285;19;20334;-82
2023/03/02 11:31:54;;;;;;;12.80;7.70;;;8.10;99.90;;;;;;7402511;19;20349;-84
2023/03/02 11:34:31;;;;;;;12.43;7.97;;;8.30;99.90;;;;;;7406863;19;20329;-87
2023/03/02 11:37:03;;;;;;;10.40;7.57;;;8.70;99.90;;;;;;7303188;19;2004433;-81
2023/03/02 11:39:49;;;;;;;11.52;7.45;;;9.00;99.90;;;;;;7407935;19;20307;-83
2023/03/02 11:42:27;;;;;;;10.82;7.55;;;9.10;99.90;;;;;;7406441;19;20300;-80
2023/03/02 11:44:53;;;;;;;10.90;7.28;;;9.40;99.90;;;;;;7309044;19;2005722;-84
2023/03/02 11:47:19;;;;;;;9.93;7.65;;;9.60;99.90;;;;;;7407723;19;20349;-81
2023/03/02 11:49:47;;;;;;;10.32;7.60;;;9.50;99.90;;;;;;7408863;19;20367;-86
2023/03/02 11:52:22;;;;;;;10.52;7.45;;;9.70;99.90;;;;;;7408813;19;20371;-84
2023/03/02 11:55:04;;;;;;;9.43;7.28;;;9.90;99.90;;;;;;7411651;19;20445;-80
2023/03/02 11:57:44;;;;;;;11.10;7.40;;;10.20;99.90;;;;;;7308869;19;2004224;-84
2023/03/02 12:00:25;;;;;;;10.13;7.35;;;10.50;99.90;;;;;;7411584;19;20425;-80
2023/03/02 12:03:17;;;;;;;9.38;7.00;;;10.80;99.90;;;;;;7308431;19;2004810;-81
2023/03/02 12:05:46;;;;;;;7.87;6.17;;;11.40;99.90;;;;;;7412072;19;20346;-85
2023/03/02 12:08:14;;;;;;;9.52;6.95;;;11.70;99.90;;;;;;7413156;19;20344;-87
2023/03/02 12:10:41;;;;;;;9.70;6.75;;;11.90;99.90;;;;;;7413700;19;20368;-80
2023/03/02 12:13:22;;;;;;;8.23;6.15;;;11.70;99.90;;;;;;7412329;19;20342;-81
2023/03/02 12:15:51;;;;;;;9.80;6.50;;;11.60;99.90;;;;;;7412169;19;20375;-85
2023/03/02 12:18:19;;;;;;;7.47;5.90;;;11.70;99.90;;;;;;7411627;19;20340;-83
2023/03/02 12:20:56;;;;;;;6.82;5.75;;;11.50;99.90;;;;;;7412813;19;20345;-87
2023/03/02 12:23:23;;;;;;;9.00;5.90;;;11.40;99.90;;;;;;7309179;19;2004211;-82
2023/03/02 12:25:50;;;;;;;8.23;6.35;;;11.70;99.90;;;;;;7414452;19;20373;-82
2023/03/02 12:28:33;;;;;;;8.43;6.17;;;11.90;99.90;;;;;;7412957;19;20303;-86
2023/03/02 12:31:07;;;;;;;9.55;6.35;;;12.40;99.90;;;;;;7309816;19;2004350;-82
2023/03/02 12:33:44;;;;;;;10.55;6.57;;;12.60;99.90;;;;;;7412509;19;20324;-85
2023/03/02 12:36:16;;;;;;;7.70;6.30;;;12.50;99.90;;;;;;7412074;19;20333;-81
2023/03/02 12:38:46;;;;;;;9.33;6.60;;;12.50;99.90;;;;;;7411519;19;20324;-84
2023/03/02 12:41:52;;;;;;;8.83;6.30;;;12.40;99.90;;;;;;7413283;19;20307;-80
2023/03/02 12:44:30;;;;;;;9.27;6.20;;;12.60;99.90;;;;;;7312144;19;2004211;-84
2023/03/02 12:46:56;;;;;;;7.32;6.05;;;12.50;99.90;;;;;;7309339;19;2004396;-82
2023/03/02 12:49:31;;;;;;;8.53;6.10;;;12.30;99.90;;;;;;7411320;19;20293;-79
2023/03/02 12:51:57;;;;;;;7.13;5.50;;;12.20;99.90;;;;;;7411237;19;20337;-80